Flight Track Log - Related Links

Times and Time Zones

All times are in EDT time to prevent confusion due to time zone crossing. See the UAL692 flight status page for this flight to view local times or setup timezone preferences in your user account.

Time Position Orientation Groundspeed Altitude Reporting Facility
EDT Latitude Longitude Course Direction KTS MPH feet Rate Location/Type
Fri 08:13:05 AM 29.9553 -95.3419 30° Northeast 171 197 800  Level Houston Center
Fri 08:13:55 AM 29.9478 -95.3742 255° West 184 212 1,700 1,855 Climbing Houston Center
Fri 08:14:55 AM 30.0158 -95.3611 North 291 335 4,200 2,938 Climbing Houston Center
Fri 08:15:00 AM 30.2557 -95.1048 28° Northeast  Level FlightAware
Fri 08:16:00 AM 30.3525 -95.0380 35° Northeast  Level FlightAware
Fri 08:16:20 AM 30.0911 -95.2981 36° Northeast 263 303 8,800  Level Houston Center
Fri 08:17:00 AM 30.4417 -94.9583 41° Northeast  Level FlightAware
Fri 08:17:21 AM 30.1550 -95.2444 36° Northeast 279 321 11,800  Level Houston Center
Fri 08:18:00 AM 30.5383 -94.8911 30° Northeast  Level FlightAware
Fri 08:18:23 AM 30.2339 -95.1747 37° Northeast 296 341 14,500  Level Houston Center
Fri 08:19:24 AM 30.3100 -95.1058 38° Northeast 344 396 16,100 1,902 Climbing Houston Center
Fri 08:20:26 AM 30.3919 -95.0361 36° Northeast 362 417 18,400 1,854 Climbing Houston Center
Fri 08:21:27 AM 30.4681 -94.9656 39° Northeast 372 428 19,900 1,525 Climbing Houston Center
Fri 08:22:28 AM 30.5547 -94.8914 36° Northeast 383 441 21,500 1,707 Climbing Houston Center
Fri 08:23:30 AM 30.6661 -94.8058 33° Northeast 399 459 23,400 1,561 Climbing Houston Center
Fri 08:24:31 AM 30.7608 -94.7333 33° Northeast 409 471 24,700 1,317 Climbing Houston Center
Fri 08:25:33 AM 30.8575 -94.6583 34° Northeast 416 479 26,100 1,415 Climbing Houston Center
Fri 08:26:34 AM 30.9536 -94.5825 34° Northeast 419 482 27,600 1,317 Climbing Houston Center
Fri 08:27:36 AM 31.0519 -94.5047 34° Northeast 429 494 28,800 1,113 Climbing Houston Center
Fri 08:28:38 AM 31.1519 -94.4281 33° Northeast 436 502 29,900 1,171 Climbing Houston Center
Fri 08:29:39 AM 31.2714 -94.3261 36° Northeast 453 521 31,200 1,171 Climbing Houston Center
Fri 08:30:41 AM 31.3533 -94.2142 49° Northeast 459 528 32,300 1,210 Climbing Houston Center
Fri 08:31:43 AM 31.4339 -94.1017 50° Northeast 454 522 33,700 1,366 Climbing Houston Center
Fri 08:32:44 AM 31.5119 -93.9889 51° Northeast 448 516 35,100 1,268 Climbing Houston Center
Fri 08:33:46 AM 31.5894 -93.8786 50° Northeast 441 507 36,300 927 Climbing Houston Center
Fri 08:34:47 AM 31.6661 -93.7686 51° Northeast 437 503 37,000 341 Climbing Houston Center
Fri 08:35:49 AM 31.7422 -93.6586 51° Northeast 436 502 37,000  Level Houston Center
Fri 08:36:51 AM 31.8264 -93.5375 51° Northeast 439 505 37,000  Level Houston Center
Fri 08:37:52 AM 31.9022 -93.4272 51° Northeast 435 501 37,000  Level Houston Center
Fri 08:38:54 AM 31.9797 -93.3153 51° Northeast 440 506 37,000  Level Houston Center
Fri 08:39:56 AM 32.0558 -93.2025 51° Northeast 440 506 37,000  Level Houston Center
Fri 08:41:17 AM 32.1669 -93.0453 50° Northeast 438 504 37,000  Level Fort Center
Fri 08:42:17 AM 32.2444 -92.9333 51° Northeast 438 504 37,000  Level Fort Center
Fri 08:43:17 AM 32.3175 -92.8217 52° Northeast 438 504 37,000  Level Fort Center
Fri 08:44:17 AM 32.3928 -92.7119 51° Northeast 438 504 37,000  Level Fort Center
Fri 08:45:17 AM 32.4736 -92.5872 52° Northeast 443 510 37,000  Level Fort Center
Fri 08:46:17 AM 32.5447 -92.4800 52° Northeast 438 504 37,000  Level Fort Center
Fri 08:47:17 AM 32.6178 -92.3747 50° Northeast 424 488 37,000 30 Level Fort Center
Fri 08:49:38 AM 32.7997 -92.0947 52° Northeast 453 521 37,100 30 Climbing Memphis Center
Fri 08:50:38 AM 32.8658 -91.9947 52° Northeast 441 507 37,100  Level Memphis Center
Fri 08:51:38 AM 32.9361 -91.8794 54° Northeast 428 493 37,100 -50 Level Memphis Center
Fri 08:52:38 AM 33.0147 -91.7719 49° Northeast 428 493 37,000 -50 Descending Memphis Center
Fri 08:53:38 AM 33.0889 -91.6589 52° Northeast 428 493 37,000  Level Memphis Center
Fri 08:54:38 AM 33.1611 -91.5483 52° Northeast 428 493 37,000  Level Memphis Center
Fri 08:55:38 AM 33.2394 -91.4253 53° Northeast 428 493 37,000  Level Memphis Center
Fri 08:56:38 AM 33.3133 -91.3142 51° Northeast 428 493 37,000  Level Memphis Center
Fri 08:57:38 AM 33.3872 -91.2031 51° Northeast 428 493 37,000  Level Memphis Center
Fri 08:58:38 AM 33.4589 -91.0917 52° Northeast 423 487 37,000  Level Memphis Center
Fri 08:59:38 AM 33.5306 -90.9803 52° Northeast 423 487 37,000  Level Memphis Center
Fri 09:00:38 AM 33.6019 -90.8708 52° Northeast 418 481 37,000  Level Memphis Center
Fri 09:01:38 AM 33.6733 -90.7592 52° Northeast 418 481 37,000  Level Memphis Center
Fri 09:02:38 AM 33.7444 -90.6469 53° Northeast 418 481 37,000  Level Memphis Center
Fri 09:03:38 AM 33.8158 -90.5347 53° Northeast 413 475 37,000  Level Memphis Center
Fri 09:04:38 AM 33.8783 -90.4372 52° Northeast 413 475 37,000  Level Memphis Center
Fri 09:05:38 AM 33.9472 -90.3247 54° Northeast 413 475 37,000  Level Memphis Center
Fri 09:06:38 AM 34.0181 -90.2119 53° Northeast 418 481 37,000 50 Level Memphis Center
Fri 09:07:38 AM 34.0889 -90.1014 52° Northeast 418 481 37,100 50 Climbing Memphis Center
Fri 09:08:38 AM 34.1575 -89.9908 53° Northeast 418 481 37,100 -50 Level Memphis Center
Fri 09:09:38 AM 34.2322 -89.8697 53° Northeast 413 475 37,000 -50 Descending Memphis Center
Fri 09:10:38 AM 34.3006 -89.7586 53° Northeast 413 475 37,000  Level Memphis Center
Fri 09:11:38 AM 34.3689 -89.6475 53° Northeast 413 475 37,000  Level Memphis Center
Fri 09:12:38 AM 34.4392 -89.5336 53° Northeast 413 475 37,000  Level Memphis Center
Fri 09:13:38 AM 34.5092 -89.4219 53° Northeast 418 481 37,000  Level Memphis Center
Fri 09:14:38 AM 34.5772 -89.3078 54° Northeast 418 481 37,000  Level Memphis Center
Fri 09:15:38 AM 34.6472 -89.1958 53° Northeast 418 481 37,000  Level Memphis Center
Fri 09:16:38 AM 34.7169 -89.0811 54° Northeast 418 481 37,000  Level Memphis Center
Fri 09:17:38 AM 34.7847 -88.9739 52° Northeast 412 474 37,000  Level Memphis Center
Fri 09:18:38 AM 34.8542 -88.8589 54° Northeast 412 474 37,000  Level Memphis Center
Fri 09:19:38 AM 34.9117 -88.7667 53° Northeast 417 480 37,000 50 Level Memphis Center
Fri 09:20:38 AM 34.9931 -88.6308 54° Northeast 417 480 37,100  Climbing Memphis Center
Fri 09:21:38 AM 35.0603 -88.5178 54° Northeast 417 480 37,000 -50 Descending Memphis Center
Fri 09:22:38 AM 35.1256 -88.4200 51° Northeast 412 474 37,000  Level Memphis Center
Fri 09:23:38 AM 35.1928 -88.3067 54° Northeast 412 474 37,000  Level Memphis Center
Fri 09:24:38 AM 35.2636 -88.1878 54° Northeast 418 481 37,000 50 Level Memphis Center
Fri 09:25:38 AM 35.3325 -88.0742 53° Northeast 418 481 37,100 50 Climbing Memphis Center
Fri 09:26:38 AM 35.4072 -87.9422 55° Northeast 418 481 37,100 -50 Level Memphis Center
Fri 09:27:38 AM 35.4700 -87.8408 53° Northeast 418 481 37,000 -50 Descending Memphis Center
Fri 09:28:38 AM 35.5342 -87.7242 56° Northeast 418 481 37,000  Level Memphis Center
Fri 09:29:38 AM 35.6047 -87.6069 53° Northeast 418 481 37,000  Level Memphis Center
Fri 09:30:38 AM 35.6789 -87.4792 54° Northeast 418 481 37,000  Level Memphis Center
Fri 09:31:38 AM 35.7492 -87.3617 54° Northeast 418 481 37,000 50 Level Memphis Center
Fri 09:32:38 AM 35.8169 -87.2414 55° Northeast 418 481 37,100 50 Climbing Memphis Center
Fri 09:33:38 AM 35.8850 -87.1211 55° Northeast 423 487 37,100 -50 Level Memphis Center
Fri 09:34:38 AM 35.9547 -87.0003 54° Northeast 428 493 37,000 -50 Descending Memphis Center
Fri 09:35:38 AM 36.0242 -86.8769 55° Northeast 433 498 37,000  Level Memphis Center
Fri 09:36:38 AM 36.0917 -86.7558 55° Northeast 433 498 37,000  Level Memphis Center
Fri 09:37:38 AM 36.1633 -86.6369 53° Northeast 433 498 37,000  Level Memphis Center
Fri 09:38:38 AM 36.2392 -86.5256 50° Northeast 427 491 37,000  Level Memphis Center
Fri 09:39:38 AM 36.3147 -86.4139 50° Northeast 427 491 37,000  Level Memphis Center
Fri 09:40:38 AM 36.3906 -86.3044 49° Northeast 416 479 37,000  Level Memphis Center
Fri 09:42:29 AM 36.5272 -86.1003 50° Northeast 423 487 37,000 35 Level Indianapolis Center
Fri 09:43:30 AM 36.6028 -85.9861 50° Northeast 424 488 37,100  Climbing Indianapolis Center
Fri 09:44:34 AM 36.6783 -85.8722 50° Northeast 423 487 37,000 -48 Descending Indianapolis Center
Fri 09:45:35 AM 36.7569 -85.7519 51° Northeast 416 479 37,000 246 Level Indianapolis Center
Fri 09:46:36 AM 36.8264 -85.6453 51° Northeast 421 484 37,500 432 Climbing Indianapolis Center
Fri 09:47:40 AM 36.9017 -85.5286 51° Northeast 427 491 37,900 581 Climbing Indianapolis Center
Fri 09:48:40 AM 36.9850 -85.4019 51° Northeast 439 505 38,700 532 Climbing Indianapolis Center
Fri 09:49:44 AM 37.0703 -85.2714 51° Northeast 445 512 39,000 143 Climbing Indianapolis Center
Fri 09:50:46 AM 37.1478 -85.1503 51° Northeast 443 510 39,000  Level Indianapolis Center
Fri 09:51:46 AM 37.2269 -85.0261 51° Northeast 451 519 39,000  Level Indianapolis Center
Fri 09:52:50 AM 37.3056 -84.9031 51° Northeast 450 518 39,000  Level Indianapolis Center
Fri 09:53:50 AM 37.3978 -84.7575 51° Northeast 453 521 39,000  Level Indianapolis Center
Fri 09:54:54 AM 37.4781 -84.6328 51° Northeast 454 522 39,000  Level Indianapolis Center
Fri 09:55:55 AM 37.5578 -84.5053 52° Northeast 460 529 39,000  Level Indianapolis Center
Fri 09:56:58 AM 37.6378 -84.3800 51° Northeast 458 527 39,000 48 Level Indianapolis Center
Fri 09:57:59 AM 37.7175 -84.2519 52° Northeast 461 531 39,100  Climbing Indianapolis Center
Fri 09:59:01 AM 37.7967 -84.1250 52° Northeast 457 526 39,000 -48 Descending Indianapolis Center
Fri 10:00:04 AM 37.8894 -83.9764 52° Northeast 458 527 39,000  Level Indianapolis Center
Fri 10:01:05 AM 37.9681 -83.8500 52° Northeast 455 524 39,000  Level Indianapolis Center
Fri 10:02:08 AM 38.0481 -83.7200 52° Northeast 461 531 39,000  Level Indianapolis Center
Fri 10:03:12 AM 38.1264 -83.5925 52° Northeast 457 526 39,000 48 Level Indianapolis Center
Fri 10:04:12 AM 38.2053 -83.4625 52° Northeast 461 531 39,100  Climbing Indianapolis Center
Fri 10:05:15 AM 38.2831 -83.3350 52° Northeast 455 524 39,000 -480 Descending Indianapolis Center
Fri 10:06:17 AM 38.3753 -83.1853 52° Northeast 457 526 38,100 -927 Descending Indianapolis Center
Fri 10:07:18 AM 38.4533 -83.0531 53° Northeast 462 532 37,100 -823 Descending Indianapolis Center
Fri 10:08:21 AM 38.5300 -82.9264 52° Northeast 454 522 36,400 -829 Descending Indianapolis Center
Fri 10:09:21 AM 38.6056 -82.8014 52° Northeast 443 510 35,400 -1,016 Descending Indianapolis Center
Fri 10:10:25 AM 38.6858 -82.6664 53° Northeast 446 513 34,300 -1,008 Descending Indianapolis Center
Fri 10:11:26 AM 38.7622 -82.5375 53° Northeast 452 520 33,300 -1,082 Descending Indianapolis Center
Fri 10:12:27 AM 38.8403 -82.4069 52° Northeast 457 526 32,100 -1,488 Descending Indianapolis Center
Fri 10:13:31 AM 38.9169 -82.2775 53° Northeast 455 524 30,200 -1,680 Descending Indianapolis Center
Fri 10:14:32 AM 38.9911 -82.1517 53° Northeast 441 507 28,600 -1,328 Descending Indianapolis Center
Fri 10:15:33 AM 39.0625 -82.0286 53° Northeast 430 495 27,500 -1,008 Descending Indianapolis Center
Fri 10:16:37 AM 39.1331 -81.9094 53° Northeast 418 481 26,500 -1,210 Descending Indianapolis Center
Fri 10:17:37 AM 39.2164 -81.7656 53° Northeast 416 479 25,000 -1,248 Descending Indianapolis Center
Fri 10:18:42 AM 39.2828 -81.6517 53° Northeast 402 463 23,900 -1,056 Descending Indianapolis Center
Fri 10:19:42 AM 39.3486 -81.5383 53° Northeast 395 455 22,800 -1,065 Descending Indianapolis Center
Fri 10:20:46 AM 39.4119 -81.4272 54° Northeast 387 445 21,700 -871 Descending Indianapolis Center
Fri 10:21:46 AM 39.4864 -81.3331 44° Northeast 378 435 21,000 -339 Descending Indianapolis Center
Fri 10:22:50 AM 39.5703 -81.2514 37° Northeast 377 434 21,000  Level Indianapolis Center
Fri 10:23:51 AM 39.6547 -81.1686 37° Northeast 379 436 21,000 -639 Level Indianapolis Center
Fri 10:24:52 AM 39.7575 -81.0714 36° Northeast 380 437 19,700 -1,694 Descending Indianapolis Center
Fri 10:25:55 AM 39.8403 -80.9903 37° Northeast 375 432 17,500 -2,208 Descending Indianapolis Center
Fri 10:26:57 AM 39.9217 -80.9106 37° Northeast 367 422 15,100 -2,304 Descending Indianapolis Center
Fri 10:28:00 AM 40.0039 -80.8336 36° Northeast 365 420 12,700 -2,226 Descending Indianapolis Center
Fri 10:29:01 AM 40.0908 -80.7681 30° Northeast 360 414 10,500 -1,444 Descending Indianapolis Center
Fri 10:29:48 AM 40.1567 -80.7217 28° Northeast 342 394 10,100 -785 Descending Cleveland Center
Fri 10:30:48 AM 40.2297 -80.6675 30° Northeast 319 367 9,100 -1,300 Descending Cleveland Center
Fri 10:31:48 AM 40.3006 -80.6103 32° Northeast 300 345 7,500 -1,500 Descending Cleveland Center
Fri 10:32:48 AM 40.3736 -80.5531 31° Northeast 287 330 6,100 -1,400 Descending Cleveland Center

Login

Don't have an account? Register now (free) for customized features, flight alerts, and more!